Time;durP1;ratioP1;P1;durP2;ratioP2;P2;SDS_P1;SDS_P2;PMS_P1;PMS_P2;Temp;Humidity;BMP_temperature;BMP_pressure;BME280_temperature;BME280_humidity;BME280_pressure;Samples;Min_cycle;Max_cycle;Signal;HPM_P1;HPM_P2
2022/07/04 00:01:44;;;;;;;6.40;3.95;;;16.30;99.90;;;;;;5093363;28;20721;-78
2022/07/04 00:04:11;;;;;;;6.07;5.07;;;16.30;99.90;;;;;;5092928;28;20249;-78
2022/07/04 00:06:38;;;;;;;7.00;4.35;;;16.20;99.90;;;;;;5093912;28;20203;-78
2022/07/04 00:09:06;;;;;;;6.05;3.92;;;16.20;99.90;;;;;;5090001;28;20286;-80
2022/07/04 00:11:33;;;;;;;5.73;5.00;;;16.20;99.90;;;;;;5082163;28;20205;-79
2022/07/04 00:14:01;;;;;;;9.23;5.13;;;16.20;99.90;;;;;;5090902;28;20524;-79
2022/07/04 00:16:28;;;;;;;6.30;4.68;;;16.10;99.90;;;;;;5088063;28;20645;-77
2022/07/04 00:18:55;;;;;;;7.15;4.90;;;16.10;99.90;;;;;;5100539;28;20274;-77
2022/07/04 00:21:22;;;;;;;7.47;6.13;;;16.10;99.90;;;;;;5092391;28;20254;-79
2022/07/04 00:23:48;;;;;;;7.45;5.40;;;16.20;99.90;;;;;;5094518;28;20306;-77
2022/07/04 00:26:17;;;;;;;6.90;6.18;;;16.10;99.90;;;;;;5100286;28;20230;-79
2022/07/04 00:28:44;;;;;;;7.25;5.30;;;16.20;99.90;;;;;;5090624;28;20280;-79
2022/07/04 00:31:11;;;;;;;11.65;5.80;;;16.10;99.90;;;;;;5091010;28;20200;-79
2022/07/04 00:33:38;;;;;;;6.40;5.80;;;16.10;99.90;;;;;;5087937;28;20223;-78
2022/07/04 00:36:05;;;;;;;6.47;5.32;;;16.10;99.90;;;;;;5093258;28;20202;-78
2022/07/04 00:38:32;;;;;;;12.90;5.90;;;16.10;99.90;;;;;;5085278;28;20283;-78
2022/07/04 00:40:59;;;;;;;6.70;5.20;;;16.10;99.90;;;;;;5093239;28;20297;-79
2022/07/04 00:43:29;;;;;;;7.20;5.72;;;16.00;99.90;;;;;;5092883;28;20235;-79
2022/07/04 00:45:56;;;;;;;6.68;6.03;;;16.00;99.90;;;;;;5094075;28;20286;-78
2022/07/04 00:48:23;;;;;;;6.25;5.57;;;16.00;99.90;;;;;;5092071;28;20257;-78
2022/07/04 00:50:50;;;;;;;6.82;6.13;;;16.00;99.90;;;;;;5092559;28;20285;-78
2022/07/04 00:53:22;;;;;;;6.43;5.82;;;16.00;99.90;;;;;;5089596;28;20237;-78
2022/07/04 00:55:55;;;;;;;9.15;6.72;;;16.00;99.90;;;;;;5111904;28;20233;-76
2022/07/04 00:58:24;;;;;;;11.85;7.40;;;15.90;99.90;;;;;;5093963;28;20656;-78
2022/07/04 01:00:52;;;;;;;9.57;7.55;;;15.90;99.90;;;;;;5095397;28;20200;-79
2022/07/04 01:03:19;;;;;;;9.00;7.80;;;15.90;99.90;;;;;;5086084;28;20218;-78
2022/07/04 01:05:46;;;;;;;7.78;7.00;;;15.80;99.90;;;;;;5086713;28;20213;-79
2022/07/04 01:08:15;;;;;;;8.75;7.85;;;15.80;99.90;;;;;;5091144;28;20608;-78
2022/07/04 01:10:42;;;;;;;9.55;8.55;;;15.80;99.90;;;;;;5092302;28;20198;-78
2022/07/04 01:13:09;;;;;;;12.80;8.05;;;15.80;99.90;;;;;;5092839;28;20313;-78
2022/07/04 01:15:35;;;;;;;13.23;7.00;;;15.70;99.90;;;;;;5089614;28;20298;-79
2022/07/04 01:18:04;;;;;;;8.40;7.60;;;15.70;99.90;;;;;;5096074;28;20201;-78
2022/07/04 01:20:37;;;;;;;9.57;7.85;;;15.70;99.90;;;;;;5093162;28;20724;-79
2022/07/04 01:23:04;;;;;;;12.13;7.53;;;15.70;99.90;;;;;;5090542;28;20229;-79
2022/07/04 01:25:32;;;;;;;9.20;7.30;;;15.80;99.90;;;;;;5084222;28;20194;-79
2022/07/04 01:27:59;;;;;;;10.05;8.27;;;15.70;99.90;;;;;;5090815;28;20283;-78
2022/07/04 01:30:26;;;;;;;9.02;7.80;;;15.70;99.90;;;;;;5092042;28;20198;-79
2022/07/04 01:32:56;;;;;;;9.18;8.15;;;15.60;99.90;;;;;;5105739;28;20228;-79
2022/07/04 01:35:23;;;;;;;8.82;8.02;;;15.50;99.90;;;;;;5100368;28;20208;-78
2022/07/04 01:37:52;;;;;;;9.95;9.00;;;15.50;99.90;;;;;;5091208;28;20535;-78
2022/07/04 01:40:19;;;;;;;11.25;8.88;;;15.50;99.90;;;;;;5087889;28;20950;-79
2022/07/04 01:42:46;;;;;;;9.70;8.70;;;15.50;99.90;;;;;;5091556;28;20667;-79
2022/07/04 01:45:13;;;;;;;9.70;8.75;;;15.50;99.90;;;;;;5089064;28;20720;-79
2022/07/04 01:47:41;;;;;;;7.72;7.03;;;15.40;99.90;;;;;;5092295;28;20202;-79
2022/07/04 01:50:12;;;;;;;12.65;8.70;;;15.40;99.90;;;;;;5082007;28;20730;-80
2022/07/04 01:52:38;;;;;;;9.18;8.00;;;15.40;99.90;;;;;;5090688;28;20258;-79
2022/07/04 01:55:09;;;;;;;8.48;7.13;;;15.40;99.90;;;;;;5081251;28;20275;-79
2022/07/04 01:57:35;;;;;;;11.48;9.00;;;15.30;99.90;;;;;;5087676;28;20683;-79
2022/07/04 02:02:47;;;;;;;9.75;8.85;;;15.30;99.90;;;;;;5090347;28;20240;-78
2022/07/04 02:05:14;;;;;;;8.95;7.35;;;15.30;99.90;;;;;;5087764;28;20219;-79
2022/07/04 02:07:41;;;;;;;8.77;7.72;;;15.30;99.90;;;;;;5091318;28;20199;-77
2022/07/04 02:10:11;;;;;;;9.15;8.35;;;15.30;99.90;;;;;;5091809;28;20657;-77
2022/07/04 02:15:33;;;;;;;9.27;7.20;;;15.20;99.90;;;;;;5063199;28;20200;-78
2022/07/04 02:18:01;;;;;;;7.93;6.70;;;15.30;99.90;;;;;;5085493;28;20230;-77
2022/07/04 02:20:28;;;;;;;7.30;6.60;;;15.10;99.90;;;;;;5094964;28;20633;-78
2022/07/04 02:22:55;;;;;;;9.95;7.32;;;15.10;99.90;;;;;;5091257;28;20230;-78
2022/07/04 02:25:23;;;;;;;5.60;5.07;;;15.20;99.90;;;;;;5093603;28;20214;-78
2022/07/04 02:27:50;;;;;;;8.60;6.35;;;15.20;99.90;;;;;;5096108;28;20200;-80
2022/07/04 02:30:17;;;;;;;7.50;6.78;;;15.10;99.90;;;;;;5101738;28;20208;-78
2022/07/04 02:32:44;;;;;;;16.52;14.82;;;15.10;99.90;;;;;;5107002;28;20226;-78
2022/07/04 02:35:11;;;;;;;8.65;6.88;;;15.10;99.90;;;;;;5113796;28;20202;-78
2022/07/04 02:37:39;;;;;;;9.18;7.40;;;15.10;99.90;;;;;;5115775;28;20202;-78
2022/07/04 02:40:07;;;;;;;7.30;5.97;;;15.10;99.90;;;;;;5112852;28;20270;-77
2022/07/04 02:42:37;;;;;;;6.60;6.00;;;15.10;99.90;;;;;;5101155;28;20233;-77
2022/07/04 02:45:05;;;;;;;7.32;6.10;;;15.10;99.90;;;;;;5098066;28;20233;-77
2022/07/04 02:47:32;;;;;;;9.05;5.93;;;15.10;99.90;;;;;;5100413;28;20704;-78
2022/07/04 02:50:01;;;;;;;6.68;5.30;;;15.10;99.90;;;;;;5084985;28;20205;-77
2022/07/04 02:52:29;;;;;;;8.05;5.93;;;15.10;99.90;;;;;;5093691;28;20256;-79
2022/07/04 02:54:56;;;;;;;9.23;6.07;;;15.10;99.90;;;;;;5088140;28;20584;-79
2022/07/04 02:57:23;;;;;;;7.05;6.35;;;15.10;99.90;;;;;;5091443;28;20205;-77
2022/07/04 02:59:52;;;;;;;7.90;5.90;;;15.10;99.90;;;;;;5092557;28;20290;-77
2022/07/04 03:02:19;;;;;;;8.35;5.70;;;15.10;99.90;;;;;;5093248;28;20301;-77
2022/07/04 03:04:46;;;;;;;7.68;5.55;;;15.20;99.90;;;;;;5092357;28;20276;-77
2022/07/04 03:07:13;;;;;;;10.20;6.97;;;15.20;99.90;;;;;;5094431;28;20224;-78
2022/07/04 03:09:40;;;;;;;7.18;6.40;;;15.20;99.90;;;;;;5094816;28;20252;-77
2022/07/04 03:12:08;;;;;;;7.53;6.80;;;15.20;99.90;;;;;;5100604;28;20293;-77
2022/07/04 03:14:35;;;;;;;6.20;5.60;;;15.20;99.90;;;;;;5094913;28;20220;-79
2022/07/04 03:17:03;;;;;;;9.50;6.75;;;15.20;99.90;;;;;;5093559;28;20714;-79
2022/07/04 03:19:30;;;;;;;6.43;5.82;;;15.20;99.90;;;;;;5086093;28;20249;-78
2022/07/04 03:21:57;;;;;;;7.60;6.90;;;15.20;99.90;;;;;;5108487;28;20216;-78
2022/07/04 03:24:29;;;;;;;8.57;6.07;;;15.20;99.90;;;;;;5098647;28;20203;-79
2022/07/04 03:26:56;;;;;;;6.68;5.97;;;15.20;99.90;;;;;;5093580;28;20254;-79
2022/07/04 03:29:23;;;;;;;11.90;7.05;;;15.20;99.90;;;;;;5088352;28;20574;-79
2022/07/04 03:31:50;;;;;;;8.38;5.85;;;15.20;99.90;;;;;;5091945;28;20198;-79
2022/07/04 03:34:18;;;;;;;7.75;5.80;;;15.30;99.90;;;;;;5092169;28;20226;-79
2022/07/04 03:36:45;;;;;;;10.02;6.35;;;15.30;99.90;;;;;;5094652;28;20217;-77
2022/07/04 03:39:12;;;;;;;10.27;6.50;;;15.30;99.90;;;;;;5090983;28;20280;-78
2022/07/04 03:41:39;;;;;;;7.65;6.30;;;15.30;99.90;;;;;;5088325;28;20282;-78
2022/07/04 03:44:06;;;;;;;9.23;7.72;;;15.30;99.90;;;;;;5089798;28;20584;-78
2022/07/04 03:46:33;;;;;;;9.60;6.38;;;15.30;99.90;;;;;;5092620;28;20198;-78
2022/07/04 03:49:00;;;;;;;7.50;6.35;;;15.30;99.90;;;;;;5090810;28;20289;-78
2022/07/04 03:51:28;;;;;;;8.00;6.55;;;15.30;99.90;;;;;;5096504;28;20760;-78
2022/07/04 03:53:55;;;;;;;6.45;5.75;;;15.30;99.90;;;;;;5086827;28;20695;-78
2022/07/04 03:56:22;;;;;;;9.50;5.75;;;15.30;99.90;;;;;;5089265;28;20571;-78
2022/07/04 03:58:52;;;;;;;5.93;5.43;;;15.40;99.90;;;;;;5110888;28;20232;-78
2022/07/04 04:01:20;;;;;;;6.78;6.00;;;15.40;99.90;;;;;;5090624;28;20233;-79
2022/07/04 04:06:33;;;;;;;8.93;5.88;;;15.60;99.90;;;;;;5092192;28;20243;-78
2022/07/04 04:09:00;;;;;;;6.35;5.75;;;15.60;99.90;;;;;;5092983;28;20265;-78
2022/07/04 04:11:27;;;;;;;7.38;5.85;;;15.80;99.90;;;;;;5077534;28;20248;-79
2022/07/04 04:13:54;;;;;;;8.90;5.82;;;16.40;99.90;;;;;;5084544;28;20334;-76
2022/07/04 04:16:21;;;;;;;5.73;4.40;;;17.40;99.90;;;;;;5096070;28;20233;-79
2022/07/04 04:18:52;;;;;;;9.57;5.60;;;18.40;99.90;;;;;;5092171;28;20441;-77
2022/07/04 04:21:19;;;;;;;7.40;3.60;;;19.50;99.90;;;;;;5102340;28;20446;-76
2022/07/04 04:23:47;;;;;;;4.67;4.20;;;20.50;99.90;;;;;;5102754;28;20995;-78
2022/07/04 04:26:14;;;;;;;7.60;5.33;;;21.30;99.90;;;;;;5097756;28;20442;-77
2022/07/04 04:28:46;;;;;;;4.70;3.30;;;21.70;99.90;;;;;;5094619;28;20483;-77
2022/07/04 04:31:14;;;;;;;4.60;3.50;;;21.80;99.90;;;;;;5093111;28;20525;-77
2022/07/04 04:33:55;;;;;;;3.53;3.23;;;22.30;99.90;;;;;;5098175;28;20479;-76
2022/07/04 04:36:22;;;;;;;5.90;3.33;;;23.10;99.80;;;;;;5094007;28;20472;-78
2022/07/04 04:38:50;;;;;;;4.77;3.43;;;23.60;97.60;;;;;;5086626;28;20444;-79
2022/07/04 04:41:17;;;;;;;4.93;2.70;;;24.10;95.80;;;;;;5083936;28;20492;-79
2022/07/04 04:43:45;;;;;;;3.47;2.87;;;24.60;94.70;;;;;;5092535;28;20551;-80
2022/07/04 04:46:12;;;;;;;3.73;2.90;;;25.20;93.80;;;;;;5090926;28;20900;-77
2022/07/04 04:48:39;;;;;;;4.50;2.80;;;25.70;92.10;;;;;;5090962;28;20541;-79
2022/07/04 04:51:06;;;;;;;5.23;2.60;;;26.50;90.90;;;;;;5091579;28;20436;-79
2022/07/04 04:53:33;;;;;;;5.37;3.40;;;26.70;88.30;;;;;;5083786;28;20521;-79
2022/07/04 04:56:01;;;;;;;5.07;2.90;;;27.30;86.30;;;;;;5094034;28;20524;-80
2022/07/04 04:58:28;;;;;;;2.53;2.20;;;27.90;83.80;;;;;;5090530;28;20458;-78
2022/07/04 05:00:55;;;;;;;5.67;3.10;;;28.40;82.50;;;;;;5088578;28;20535;-78
2022/07/04 05:03:23;;;;;;;2.53;2.33;;;28.50;79.90;;;;;;5089066;28;20910;-79
2022/07/04 05:05:51;;;;;;;3.80;2.20;;;28.90;79.70;;;;;;5081922;28;20895;-78
2022/07/04 05:08:18;;;;;;;4.37;2.80;;;29.40;77.90;;;;;;5093476;28;20440;-78
2022/07/04 05:10:44;;;;;;;5.33;2.60;;;29.10;76.10;;;;;;5098793;28;20472;-78
2022/07/04 05:13:13;;;;;;;2.90;2.10;;;28.90;76.90;;;;;;5087276;28;20479;-78
2022/07/04 05:15:39;;;;;;;4.23;2.40;;;28.30;76.60;;;;;;5093052;28;20546;-80
2022/07/04 05:18:06;;;;;;;7.67;2.40;;;28.00;77.90;;;;;;5086441;28;20541;-78
2022/07/04 05:20:33;;;;;;;3.73;2.37;;;28.50;78.50;;;;;;5092288;28;20463;-75
2022/07/04 05:23:00;;;;;;;4.63;2.00;;;28.80;77.20;;;;;;5073828;28;20476;-76
2022/07/04 05:25:27;;;;;;;3.50;1.90;;;28.40;76.50;;;;;;5087437;28;20449;-78
2022/07/04 05:27:54;;;;;;;2.93;1.53;;;28.70;76.50;;;;;;5085162;28;20487;-76
2022/07/04 05:30:23;;;;;;;3.03;2.30;;;28.70;76.20;;;;;;5085186;28;20456;-79
2022/07/04 05:32:50;;;;;;;3.70;2.33;;;29.00;75.30;;;;;;5086366;28;20468;-75
2022/07/04 05:35:17;;;;;;;3.33;1.80;;;28.60;74.90;;;;;;5092552;28;20923;-77
2022/07/04 05:37:44;;;;;;;3.70;1.87;;;28.90;75.00;;;;;;5092699;28;20484;-80
2022/07/04 05:40:12;;;;;;;5.40;2.20;;;28.40;75.10;;;;;;5085416;28;20815;-77
2022/07/04 05:42:39;;;;;;;5.20;1.90;;;28.20;75.70;;;;;;5089654;28;20497;-76
2022/07/04 05:45:07;;;;;;;3.97;2.00;;;27.80;76.10;;;;;;5094889;28;20448;-75
2022/07/04 05:47:35;;;;;;;5.63;2.57;;;28.10;76.40;;;;;;5095026;28;20548;-77
2022/07/04 05:50:02;;;;;;;2.37;1.50;;;28.30;75.50;;;;;;5096029;28;20499;-79
2022/07/04 05:52:29;;;;;;;3.73;1.60;;;28.80;75.00;;;;;;5091969;28;20530;-77
2022/07/04 05:54:56;;;;;;;3.27;1.47;;;29.20;74.10;;;;;;5096685;28;21069;-76
2022/07/04 05:57:23;;;;;;;4.40;1.67;;;29.60;72.50;;;;;;5093336;28;20476;-77
2022/07/04 05:59:50;;;;;;;4.80;1.23;;;30.10;71.20;;;;;;5089647;28;20463;-76
2022/07/04 06:02:17;;;;;;;3.57;1.57;;;30.20;70.50;;;;;;5093654;28;20538;-78
2022/07/04 06:04:45;;;;;;;3.00;1.80;;;30.20;70.20;;;;;;5092449;28;20433;-76
2022/07/04 06:07:12;;;;;;;3.77;1.60;;;30.40;70.10;;;;;;5095422;28;21015;-80
2022/07/04 06:09:39;;;;;;;3.10;1.50;;;30.40;69.50;;;;;;5094146;28;20453;-77
2022/07/04 06:12:07;;;;;;;4.83;1.60;;;30.80;68.30;;;;;;5110020;28;20445;-78
2022/07/04 06:14:33;;;;;;;3.90;1.90;;;30.70;68.40;;;;;;5092394;28;20563;-79
2022/07/04 06:17:00;;;;;;;1.97;1.50;;;29.80;67.90;;;;;;5104795;28;20522;-78
2022/07/04 06:19:27;;;;;;;5.33;1.80;;;29.80;69.60;;;;;;5096097;28;20456;-82
2022/07/04 06:21:56;;;;;;;3.67;1.90;;;29.50;70.90;;;;;;5097252;28;20480;-79
2022/07/04 06:24:23;;;;;;;4.00;2.07;;;29.60;70.10;;;;;;5096923;28;20469;-80
2022/07/04 06:26:50;;;;;;;1.70;1.20;;;29.40;71.40;;;;;;5095682;28;20448;-77
2022/07/04 06:29:17;;;;;;;3.63;1.57;;;29.90;70.80;;;;;;5095471;28;20495;-79
2022/07/04 06:31:45;;;;;;;3.43;1.73;;;30.30;69.50;;;;;;5089518;28;20461;-77
2022/07/04 06:36:57;;;;;;;2.00;1.70;;;29.90;69.10;;;;;;5094661;28;20447;-76
2022/07/04 06:39:24;;;;;;;3.23;1.27;;;29.70;69.30;;;;;;5083123;28;20450;-76
2022/07/04 06:41:51;;;;;;;3.40;1.47;;;30.50;69.10;;;;;;5093519;28;20813;-76
2022/07/04 06:44:18;;;;;;;2.63;1.30;;;31.00;68.20;;;;;;5092626;28;20487;-76
2022/07/04 06:46:45;;;;;;;1.67;1.47;;;30.40;67.60;;;;;;5091170;28;20476;-78
2022/07/04 06:49:12;;;;;;;2.80;1.80;;;29.20;68.50;;;;;;5090350;28;20480;-76
2022/07/04 06:51:39;;;;;;;3.10;1.23;;;28.80;69.10;;;;;;5095448;28;20527;-78
2022/07/04 06:54:07;;;;;;;8.17;1.60;;;28.50;70.50;;;;;;5086381;28;20542;-77
2022/07/04 06:56:35;;;;;;;3.97;1.40;;;29.10;70.20;;;;;;5083677;28;20923;-76
2022/07/04 06:59:04;;;;;;;1.97;1.20;;;28.80;70.30;;;;;;5106006;28;20950;-79
2022/07/04 07:01:32;;;;;;;2.60;1.43;;;28.80;70.90;;;;;;5093910;28;20451;-78
2022/07/04 07:03:59;;;;;;;5.03;1.70;;;28.40;70.60;;;;;;5095585;28;20838;-78
2022/07/04 07:06:26;;;;;;;2.17;1.40;;;28.60;71.30;;;;;;5091631;28;20829;-77
2022/07/04 07:08:53;;;;;;;2.80;1.20;;;28.20;70.70;;;;;;5090326;28;20505;-79
2022/07/04 07:11:22;;;;;;;2.20;1.00;;;28.00;71.30;;;;;;5092188;28;20731;-79
2022/07/04 07:13:51;;;;;;;4.13;1.33;;;27.90;70.70;;;;;;5093836;28;20482;-76
2022/07/04 07:16:19;;;;;;;3.07;1.83;;;28.60;70.60;;;;;;5095350;28;20444;-78
2022/07/04 07:18:48;;;;;;;4.27;2.07;;;29.40;69.20;;;;;;5094412;28;20448;-80
2022/07/04 07:21:15;;;;;;;2.60;1.10;;;28.90;68.70;;;;;;5092152;28;20448;-78
2022/07/04 07:23:42;;;;;;;2.97;1.03;;;28.30;70.70;;;;;;5093989;28;20464;-75
2022/07/04 07:26:11;;;;;;;2.67;1.00;;;28.30;71.40;;;;;;5101270;28;20440;-75
2022/07/04 07:28:40;;;;;;;1.70;1.27;;;29.40;70.10;;;;;;5101830;28;20453;-78
2022/07/04 07:31:07;;;;;;;3.00;1.23;;;30.20;66.00;;;;;;5091776;28;20479;-77
2022/07/04 07:33:34;;;;;;;3.60;1.53;;;29.80;66.30;;;;;;5103047;28;20533;-77
2022/07/04 07:36:01;;;;;;;2.77;1.30;;;30.50;66.40;;;;;;5104666;28;20477;-75
2022/07/04 07:38:28;;;;;;;3.70;1.30;;;31.10;65.10;;;;;;5114771;28;20450;-79
2022/07/04 07:40:55;;;;;;;3.17;1.03;;;30.90;63.40;;;;;;5102273;28;20465;-77
2022/07/04 07:43:22;;;;;;;2.60;1.00;;;31.10;63.00;;;;;;5101137;28;20460;-77
2022/07/04 07:45:50;;;;;;;2.70;1.40;;;31.60;63.90;;;;;;5093197;28;20441;-78
2022/07/04 07:48:17;;;;;;;3.57;1.20;;;31.90;62.20;;;;;;5093394;28;20531;-77
2022/07/04 07:50:44;;;;;;;1.70;1.00;;;31.90;60.60;;;;;;5093552;28;20436;-79
2022/07/04 07:53:11;;;;;;;1.40;0.83;;;31.70;61.60;;;;;;5086630;28;20521;-77
2022/07/04 07:55:38;;;;;;;3.97;1.47;;;31.90;60.80;;;;;;5091062;28;20558;-76
2022/07/04 07:58:05;;;;;;;6.03;1.50;;;32.60;60.80;;;;;;5100998;28;20452;-77
2022/07/04 08:00:32;;;;;;;3.30;1.00;;;32.80;59.50;;;;;;5095374;28;20515;-77
2022/07/04 08:05:44;;;;;;;3.53;1.50;;;30.90;60.30;;;;;;5097822;28;20433;-77
2022/07/04 08:08:11;;;;;;;2.53;1.33;;;30.10;61.00;;;;;;5097938;28;20780;-76
2022/07/04 08:10:38;;;;;;;3.03;1.47;;;29.40;63.50;;;;;;5093527;28;20443;-80
2022/07/04 08:13:05;;;;;;;3.07;0.93;;;29.70;64.80;;;;;;5088198;28;20461;-77
2022/07/04 08:15:32;;;;;;;2.33;0.80;;;30.70;63.30;;;;;;5100209;28;20623;-76
2022/07/04 08:18:01;;;;;;;2.30;1.07;;;30.00;61.30;;;;;;5093161;28;20890;-75
2022/07/04 08:20:28;;;;;;;2.33;1.00;;;29.60;62.20;;;;;;5093021;28;20516;-79
2022/07/04 08:22:55;;;;;;;2.50;1.00;;;30.20;63.60;;;;;;5089550;28;20466;-77
2022/07/04 08:25:22;;;;;;;4.20;1.00;;;30.00;61.90;;;;;;5092102;28;20527;-78
2022/07/04 08:27:48;;;;;;;2.60;1.10;;;29.90;62.50;;;;;;5093447;28;20440;-76
2022/07/04 08:30:15;;;;;;;2.10;0.90;;;29.70;63.70;;;;;;5083489;28;20531;-78
2022/07/04 08:32:42;;;;;;;2.50;1.07;;;29.90;62.80;;;;;;5085276;28;20826;-79
2022/07/04 08:35:11;;;;;;;5.00;1.43;;;30.20;63.30;;;;;;5091574;28;20851;-79
2022/07/04 08:37:40;;;;;;;6.87;1.17;;;30.30;62.30;;;;;;5091928;28;20536;-79
2022/07/04 08:40:08;;;;;;;3.00;1.10;;;30.60;61.10;;;;;;5088833;28;20448;-76
2022/07/04 08:42:37;;;;;;;1.10;0.80;;;31.00;61.00;;;;;;5089664;28;20478;-75
2022/07/04 08:45:06;;;;;;;3.47;1.00;;;31.00;60.10;;;;;;5094895;28;20831;-75
2022/07/04 08:47:38;;;;;;;2.70;1.07;;;31.40;60.30;;;;;;5091164;28;20506;-77
2022/07/04 08:50:11;;;;;;;1.60;1.00;;;30.60;60.10;;;;;;5096183;28;20466;-78
2022/07/04 08:52:40;;;;;;;1.43;1.00;;;31.30;60.40;;;;;;5086700;28;20469;-74
2022/07/04 09:00:38;;;;;;;2.10;0.97;;;32.00;57.70;;;;;;5082819;28;20430;-78
2022/07/04 09:03:06;;;;;;;2.03;1.00;;;31.30;59.20;;;;;;5091707;28;20472;-76
2022/07/04 09:05:35;;;;;;;1.40;1.00;;;31.90;59.60;;;;;;5084328;28;21150;-77
2022/07/04 09:08:03;;;;;;;2.43;1.00;;;32.40;58.80;;;;;;5081696;28;20488;-78
2022/07/04 09:10:31;;;;;;;3.73;1.20;;;32.30;58.40;;;;;;5087856;28;20441;-76
2022/07/04 09:12:58;;;;;;;2.33;1.03;;;32.80;58.20;;;;;;5084587;28;20804;-78
2022/07/04 09:15:26;;;;;;;3.73;1.10;;;32.50;57.70;;;;;;5088117;28;20568;-77
2022/07/04 09:17:54;;;;;;;2.70;2.00;;;33.10;57.60;;;;;;5085390;28;20460;-77
2022/07/04 09:20:23;;;;;;;3.53;1.83;;;33.70;58.40;;;;;;5088638;28;20453;-78
2022/07/04 09:22:53;;;;;;;2.43;1.17;;;32.30;57.00;;;;;;5086796;28;20912;-76
2022/07/04 09:25:21;;;;;;;4.93;1.70;;;30.90;59.60;;;;;;5079819;28;20563;-76
2022/07/04 09:27:49;;;;;;;2.77;1.27;;;29.90;60.20;;;;;;5087804;28;21011;-76
2022/07/04 09:30:18;;;;;;;2.93;1.10;;;29.00;61.10;;;;;;5085944;28;20926;-78
2022/07/04 09:32:46;;;;;;;2.40;1.00;;;29.30;63.20;;;;;;5090958;28;20479;-78
2022/07/04 09:35:17;;;;;;;1.73;1.37;;;29.20;63.30;;;;;;5083988;28;20530;-78
2022/07/04 09:37:46;;;;;;;3.20;1.30;;;28.90;64.70;;;;;;5089194;28;20999;-79
2022/07/04 09:40:24;;;;;;;3.13;1.50;;;28.00;65.90;;;;;;5097879;28;20551;-76
2022/07/04 09:42:52;;;;;;;4.27;1.70;;;29.00;66.40;;;;;;5068856;28;21187;-76
2022/07/04 09:45:21;;;;;;;2.50;1.03;;;30.10;63.10;;;;;;5090204;28;20459;-75
2022/07/04 09:47:49;;;;;;;3.93;1.60;;;30.20;62.90;;;;;;5087653;28;20813;-75
2022/07/04 09:50:18;;;;;;;2.83;1.53;;;30.20;61.60;;;;;;5088695;28;20508;-77
2022/07/04 09:52:54;;;;;;;3.00;1.37;;;29.30;63.30;;;;;;5091194;28;20460;-76
2022/07/04 09:55:24;;;;;;;3.73;1.43;;;28.30;64.90;;;;;;5093314;28;20510;-77
2022/07/04 09:57:52;;;;;;;2.27;1.10;;;27.60;66.30;;;;;;5091834;28;20480;-76
2022/07/04 10:00:22;;;;;;;2.80;1.40;;;28.10;66.10;;;;;;5080940;28;20481;-77
2022/07/04 10:02:49;;;;;;;2.80;1.10;;;28.90;65.00;;;;;;5098260;28;20538;-78
2022/07/04 10:05:27;;;;;;;6.37;1.60;;;29.00;63.90;;;;;;5104216;28;20464;-76
2022/07/04 10:07:55;;;;;;;3.83;1.83;;;29.50;64.50;;;;;;5106216;28;20475;-75
2022/07/04 10:10:28;;;;;;;1.87;1.23;;;29.60;63.00;;;;;;5092220;28;20515;-75
2022/07/04 10:12:57;;;;;;;4.00;1.27;;;29.00;63.00;;;;;;5100028;28;20546;-77
2022/07/04 10:15:24;;;;;;;2.00;1.43;;;29.10;64.70;;;;;;5090928;28;20480;-77
2022/07/04 10:17:52;;;;;;;3.50;1.40;;;28.60;65.20;;;;;;5092724;28;20468;-77
2022/07/04 10:20:19;;;;;;;2.60;1.40;;;28.00;66.10;;;;;;5091636;28;20449;-76
2022/07/04 10:22:46;;;;;;;5.20;1.43;;;27.20;67.10;;;;;;5085833;28;20488;-75
2022/07/04 10:25:13;;;;;;;3.17;1.43;;;26.90;68.70;;;;;;5088180;28;20448;-74
2022/07/04 10:27:41;;;;;;;2.90;1.20;;;27.00;69.50;;;;;;5097985;28;20483;-75
2022/07/04 10:30:14;;;;;;;4.60;1.60;;;26.90;69.20;;;;;;5106872;28;20453;-78
2022/07/04 10:32:44;;;;;;;3.30;1.17;;;25.80;69.90;;;;;;5106831;28;20493;-76
2022/07/04 10:35:14;;;;;;;3.20;1.63;;;25.90;72.30;;;;;;5122846;28;20506;-77
2022/07/04 10:38:07;;;;;;;1.50;0.90;;;26.20;71.00;;;;;;5105572;28;20498;-76
2022/07/04 10:40:48;;;;;;;5.23;1.30;;;26.40;70.80;;;;;;5088283;28;20539;-77
2022/07/04 10:44:01;;;;;;;4.30;0.97;;;26.50;71.20;;;;;;5094567;28;20464;-77
2022/07/04 10:46:35;;;;;;;2.20;1.20;;;26.50;71.10;;;;;;5093534;28;20789;-79
2022/07/04 10:49:05;;;;;;;3.50;0.93;;;26.00;70.80;;;;;;5094099;28;20448;-76
2022/07/04 10:51:43;;;;;;;4.37;1.33;;;26.30;70.90;;;;;;5086739;28;20860;-77
2022/07/04 10:54:13;;;;;;;2.20;1.40;;;26.10;71.20;;;;;;5092018;28;20475;-78
2022/07/04 10:56:44;;;;;;;2.20;1.23;;;25.80;71.90;;;;;;5091757;28;20552;-77
2022/07/04 10:59:25;;;;;;;2.13;1.37;;;26.00;72.30;;;;;;5090712;28;20825;-76
2022/07/04 11:02:38;;;;;;;4.37;1.40;;;26.40;71.70;;;;;;5093620;28;20452;-75
2022/07/04 11:05:11;;;;;;;3.03;2.23;;;26.90;70.90;;;;;;5022688;28;20533;-77
2022/07/04 11:07:57;;;;;;;2.93;1.43;;;27.00;69.60;;;;;;5078425;28;20457;-78
2022/07/04 11:10:25;;;;;;;2.90;1.40;;;26.80;69.20;;;;;;5091199;28;20448;-77
2022/07/04 11:13:08;;;;;;;5.80;1.90;;;27.00;70.20;;;;;;5094492;28;20509;-77
2022/07/04 11:16:07;;;;;;;2.43;1.00;;;26.80;69.80;;;;;;5092499;28;20564;-77
2022/07/04 11:18:42;;;;;;;3.10;1.20;;;26.40;70.70;;;;;;5087082;28;20449;-76
2022/07/04 11:21:21;;;;;;;3.37;1.50;;;26.30;70.20;;;;;;5093046;28;20530;-76
2022/07/04 11:23:53;;;;;;;3.73;1.40;;;26.40;70.40;;;;;;5094948;28;20634;-76
2022/07/04 11:26:21;;;;;;;5.40;1.30;;;26.40;70.00;;;;;;5091808;28;20443;-77
2022/07/04 11:28:48;;;;;;;3.90;1.10;;;26.50;71.40;;;;;;5091052;28;20448;-77
2022/07/04 11:31:15;;;;;;;1.73;1.10;;;26.30;70.80;;;;;;5084097;28;20520;-77
2022/07/04 11:33:44;;;;;;;3.67;1.00;;;26.20;70.40;;;;;;5093818;28;20472;-77
2022/07/04 11:36:16;;;;;;;1.90;1.10;;;26.30;70.60;;;;;;5092021;28;20925;-77
2022/07/04 11:38:53;;;;;;;3.27;1.07;;;26.50;70.00;;;;;;5091926;28;20444;-75
2022/07/04 11:47:10;;;;;;;1.37;0.90;;;26.00;71.20;;;;;;5091126;28;20435;-77
2022/07/04 11:49:42;;;;;;;3.13;1.27;;;25.70;71.00;;;;;;5098070;28;20448;-76
2022/07/04 11:52:09;;;;;;;2.53;1.07;;;26.00;71.70;;;;;;5092011;28;20444;-77
2022/07/04 11:54:39;;;;;;;2.57;1.10;;;26.10;70.10;;;;;;5092845;28;20999;-77
2022/07/04 11:57:20;;;;;;;2.90;1.60;;;26.20;69.40;;;;;;5094231;28;20484;-78
2022/07/04 11:59:55;;;;;;;3.23;1.30;;;26.40;69.50;;;;;;5066017;28;20449;-78
2022/07/04 12:02:22;;;;;;;2.90;1.20;;;26.30;69.20;;;;;;5092601;28;20466;-76
2022/07/04 12:04:49;;;;;;;4.73;1.10;;;26.20;71.00;;;;;;5094242;28;20851;-77
2022/07/04 12:07:18;;;;;;;3.30;1.20;;;26.20;69.30;;;;;;5094286;28;20865;-75
2022/07/04 12:09:47;;;;;;;2.17;1.23;;;25.90;69.80;;;;;;5092415;28;20527;-77
2022/07/04 12:12:17;;;;;;;10.93;1.80;;;25.90;70.40;;;;;;5100243;28;20473;-78
2022/07/04 12:15:02;;;;;;;2.70;1.43;;;25.90;70.10;;;;;;5110940;28;20452;-74
2022/07/04 12:17:32;;;;;;;3.27;2.40;;;26.10;70.40;;;;;;5102043;28;20503;-75
2022/07/04 12:20:01;;;;;;;3.10;1.17;;;26.00;68.30;;;;;;5090307;28;20842;-75
2022/07/04 12:22:34;;;;;;;3.83;1.07;;;26.30;68.50;;;;;;5090346;28;20529;-77
2022/07/04 12:25:04;;;;;;;4.40;1.27;;;26.20;67.40;;;;;;5090199;28;20896;-78
2022/07/04 12:27:31;;;;;;;2.50;1.30;;;26.50;69.30;;;;;;5090681;28;20429;-77
2022/07/04 12:30:00;;;;;;;3.37;1.20;;;26.70;67.40;;;;;;5089593;28;20457;-76
2022/07/04 12:32:46;;;;;;;1.80;1.07;;;26.70;67.90;;;;;;5083531;28;20933;-75
2022/07/04 12:35:38;;;;;;;3.33;1.57;;;26.50;67.00;;;;;;5095182;28;21010;-76
2022/07/04 12:38:06;;;;;;;2.77;1.27;;;26.10;67.80;;;;;;5092195;28;20797;-76
2022/07/04 12:40:36;;;;;;;3.73;1.03;;;26.00;68.50;;;;;;5091666;28;20448;-77
2022/07/04 12:43:03;;;;;;;3.73;1.30;;;26.20;69.20;;;;;;5091180;28;20472;-78
2022/07/04 12:45:45;;;;;;;4.77;1.73;;;26.40;68.70;;;;;;5089175;28;20456;-78
2022/07/04 12:48:26;;;;;;;3.97;1.30;;;26.70;68.50;;;;;;5083417;28;20953;-78
2022/07/04 12:50:54;;;;;;;2.00;1.27;;;26.40;67.50;;;;;;5089727;28;20954;-78
2022/07/04 12:53:22;;;;;;;5.13;2.40;;;26.30;67.50;;;;;;5090185;28;20978;-77
2022/07/04 12:55:50;;;;;;;4.50;1.57;;;26.00;68.60;;;;;;5092321;28;20475;-76
2022/07/04 12:58:18;;;;;;;2.40;1.53;;;26.10;69.20;;;;;;5089961;28;20535;-77
2022/07/04 13:00:45;;;;;;;3.10;1.20;;;26.30;69.10;;;;;;5091173;28;20450;-78
2022/07/04 13:03:12;;;;;;;2.47;1.47;;;26.10;69.00;;;;;;5090392;28;20521;-78
2022/07/04 13:05:40;;;;;;;3.50;1.13;;;25.90;70.20;;;;;;5087769;28;20456;-77
2022/07/04 13:08:07;;;;;;;4.03;1.47;;;26.00;70.70;;;;;;5092258;28;20436;-76
2022/07/04 13:10:35;;;;;;;5.93;1.10;;;25.90;70.50;;;;;;5098105;28;20439;-78
2022/07/04 13:13:03;;;;;;;1.93;1.60;;;25.70;74.30;;;;;;5100567;28;20482;-77
2022/07/04 13:15:30;;;;;;;4.27;1.90;;;25.50;76.70;;;;;;5091799;28;20509;-76
2022/07/04 13:17:58;;;;;;;6.13;2.40;;;25.00;78.40;;;;;;5096308;28;20519;-76
2022/07/04 13:20:25;;;;;;;4.30;2.10;;;24.80;79.80;;;;;;5096876;28;20493;-78